Monday, April 23, 2018, 1:46 AM GMT
Back to Local

CXBO, Beauport CS, Que.

Location: , , Canada Lat: 46.833
Local Time: 1:46 AM GMT ( 1:46 GMT) Lon: -71.2
Time Zone: GMT Elev: 32 ft

Show me the last for .
Show Coded

Time T Td Feel RH Dir Speed Gust Alt SLP Vis Weather Sky Remarks
2018-04-23 01:00 - - - 0 310° 3 - - - 0 None
2018-04-23 00:00 - - - 0 310° 6 - - - 0 None
2018-04-22 23:00 - - - 0 330° 7 - - - 0 None
2018-04-22 22:00 - - - 0 220° 8 - - - 0 None
2018-04-22 21:00 - - - 0 230° 13 18 - - 0 Peak wind: 24 mph (21 kts) from 230° at 00 min
2018-04-22 20:00 - - - 0 220° 16 24 - - 0 Peak wind: 25 mph (22 kts) from 230° at 49 min
2018-04-22 19:00 - - - 0 220° 15 22 - - 0 Peak wind: 21 mph (19 kts) from 230° at 48 min
2018-04-22 18:00 - - - 0 200° 14 20 - - 0 Peak wind: 19 mph (17 kts) from 220° at 40 min
2018-04-22 17:00 - - - 0 210° 10 - - - 0 None
2018-04-22 15:00 - - - 0 270° 8 - - - 0 None
2018-04-22 14:00 - - - 0 350° 3 - - - 0 None
2018-04-22 13:00 - - - 0 290° 2 - - - 0 None
2018-04-22 12:00 - - - 0 280° 3 - - - 0 None
2018-04-22 11:00 - - - 0 300° 2 - - - 0 None
2018-04-22 10:00 - - - 0 350° 3 - - - 0 None
2018-04-22 09:00 - - - 0 170° 2 - - - 0 None
2018-04-22 08:00 - - - 0 310° 6 - - - 0 None
2018-04-22 07:00 - - - 0 240° 3 - - - 0 None
2018-04-22 06:00 - - - 0 280° 3 - - - 0 None
2018-04-22 05:00 - - - 0 270° 6 - - - 0 None
2018-04-22 04:00 - - - 0 270° 5 - - - 0 None
2018-04-22 03:00 - - - 0 340° 2 - - - 0 None
2018-04-22 02:00 - - - 0 330° 5 - - - 0 None

Support USWX by starting your Amazon purchase here.